createdAt,value
2023-04-09T00:03:29.938Z,76.61
2023-04-09T00:08:33.947Z,76.60
2023-04-09T00:13:39.602Z,76.88
2023-04-09T00:18:43.790Z,76.98
2023-04-09T00:23:47.483Z,76.93
2023-04-09T00:28:51.503Z,77.01
2023-04-09T00:33:55.857Z,77.13
2023-04-09T00:39:03.158Z,77.16
2023-04-09T00:44:06.980Z,77.47
2023-04-09T00:49:10.775Z,77.74
2023-04-09T00:54:14.885Z,77.84
2023-04-09T00:59:18.838Z,78.03
2023-04-09T01:04:23.637Z,78.10
2023-04-09T01:09:42.773Z,78.41
2023-04-09T01:14:57.750Z,78.06
2023-04-09T01:20:10.765Z,78.51
2023-04-09T01:25:34.452Z,78.41
2023-04-09T01:30:40.267Z,78.92
2023-04-09T01:35:46.754Z,79.06
2023-04-09T01:40:51.310Z,79.43
2023-04-09T01:45:55.579Z,79.67
2023-04-09T01:50:59.892Z,79.85
2023-04-09T01:56:04.043Z,79.41
2023-04-09T02:01:07.774Z,80.23
2023-04-09T02:06:17.940Z,80.34
2023-04-09T02:11:24.303Z,80.63
2023-04-09T02:16:28.734Z,80.96
2023-04-09T02:21:32.617Z,81.27
2023-04-09T02:26:36.346Z,81.75
2023-04-09T02:31:40.037Z,81.92
2023-04-09T02:36:44.090Z,82.04
2023-04-09T02:41:48.132Z,82.03
2023-04-09T02:46:52.982Z,82.01
2023-04-09T02:51:56.984Z,82.22
2023-04-09T02:57:01.595Z,82.61
2023-04-09T03:02:05.535Z,82.14
2023-04-09T03:07:09.558Z,82.21
2023-04-09T03:12:13.417Z,82.85
2023-04-09T03:17:17.133Z,82.80
2023-04-09T03:22:20.960Z,82.59
2023-04-09T03:27:27.587Z,82.40
2023-04-09T03:32:32.185Z,82.34
2023-04-09T03:37:36.680Z,82.77
2023-04-09T03:42:43.221Z,82.84
2023-04-09T03:47:47.936Z,82.69
2023-04-09T03:52:53.477Z,83.03
2023-04-09T03:57:57.436Z,83.03
2023-04-09T04:03:04.646Z,82.81
2023-04-09T04:08:24.748Z,82.83
2023-04-09T04:13:28.655Z,82.91
2023-04-09T04:18:34.165Z,82.89
2023-04-09T04:23:38.192Z,83.13
2023-04-09T04:28:53.459Z,83.40
2023-04-09T04:34:22.344Z,83.92
2023-04-09T04:39:32.658Z,83.47
2023-04-09T04:44:40.712Z,83.57
2023-04-09T04:50:04.596Z,83.76
2023-04-09T04:55:13.094Z,84.28
2023-04-09T05:00:19.283Z,84.73
2023-04-09T05:05:24.184Z,85.37
2023-04-09T05:10:31.355Z,85.20
2023-04-09T05:15:41.580Z,85.50
2023-04-09T05:20:46.498Z,85.79
2023-04-09T05:25:50.952Z,85.60
2023-04-09T05:31:03.298Z,85.45
2023-04-09T05:36:09.337Z,85.68
2023-04-09T05:41:13.451Z,86.26
2023-04-09T05:46:25.644Z,86.88
2023-04-09T05:51:29.444Z,87.50
2023-04-09T05:56:33.937Z,86.07
2023-04-09T06:01:38.393Z,86.13
2023-04-09T06:06:42.269Z,84.94
2023-04-09T06:11:46.127Z,86.93
2023-04-09T06:16:49.907Z,86.68
2023-04-09T06:21:53.642Z,87.83
2023-04-09T06:26:57.355Z,86.38
2023-04-09T06:32:01.417Z,88.04
2023-04-09T06:37:05.377Z,89.04
2023-04-09T06:42:09.129Z,89.36
2023-04-09T06:47:35.987Z,89.49
2023-04-09T06:52:39.990Z,89.59
2023-04-09T06:57:43.738Z,89.71
2023-04-09T07:02:47.688Z,89.89
2023-04-09T07:07:51.968Z,90.01
2023-04-09T07:12:55.678Z,89.25
2023-04-09T07:17:59.946Z,89.95
2023-04-09T07:23:03.643Z,90.32
2023-04-09T07:28:07.354Z,89.92
2023-04-09T07:33:11.177Z,90.50
2023-04-09T07:38:15.286Z,90.75
2023-04-09T07:43:20.177Z,90.56
2023-04-09T07:48:25.134Z,90.04
2023-04-09T07:53:28.914Z,89.93
2023-04-09T07:58:32.623Z,89.93
2023-04-09T08:03:37.370Z,89.67
2023-04-09T08:08:42.136Z,89.22
2023-04-09T08:13:45.875Z,89.38
2023-04-09T08:18:51.372Z,89.10
2023-04-09T08:23:59.921Z,89.18
2023-04-09T08:29:04.132Z,89.57
2023-04-09T08:34:08.256Z,89.44
2023-04-09T08:39:12.436Z,89.42
2023-04-09T08:44:17.082Z,89.46
2023-04-09T08:49:21.643Z,89.53
2023-04-09T08:54:27.295Z,89.50
2023-04-09T08:59:31.306Z,88.58
2023-04-09T09:04:46.926Z,88.53
2023-04-09T09:10:03.852Z,88.47
2023-04-09T09:15:28.856Z,87.49
2023-04-09T09:20:32.840Z,87.25
2023-04-09T09:25:43.630Z,87.21
2023-04-09T09:30:49.194Z,86.93
2023-04-09T09:35:54.934Z,87.04
2023-04-09T09:40:59.495Z,87.14
2023-04-09T09:46:03.586Z,87.15
2023-04-09T09:51:13.160Z,86.92
2023-04-09T09:56:20.036Z,87.34
2023-04-09T10:01:25.139Z,87.19
2023-04-09T10:06:29.091Z,87.86
2023-04-09T10:11:34.558Z,88.61
2023-04-09T10:16:38.488Z,89.30
2023-04-09T10:21:46.255Z,89.65
2023-04-09T10:26:54.861Z,89.73
2023-04-09T10:32:06.728Z,89.99
2023-04-09T10:37:15.274Z,88.88
2023-04-09T10:42:27.580Z,89.09
2023-04-09T10:47:36.598Z,88.30
2023-04-09T10:52:42.157Z,88.54
2023-04-09T10:57:46.090Z,88.27
2023-04-09T11:03:07.126Z,87.92
2023-04-09T11:08:12.868Z,87.78
2023-04-09T11:13:18.763Z,88.22
2023-04-09T11:18:27.554Z,88.64
2023-04-09T11:23:32.602Z,88.87
2023-04-09T11:28:36.294Z,88.32
2023-04-09T11:33:40.048Z,87.67
2023-04-09T11:38:43.701Z,87.90
2023-04-09T11:43:47.453Z,88.77
2023-04-09T11:48:51.811Z,89.00
2023-04-09T11:53:55.976Z,89.41
2023-04-09T11:58:59.881Z,89.55
2023-04-09T12:04:03.966Z,89.51
2023-04-09T12:09:09.304Z,89.59
2023-04-09T12:14:17.488Z,90.01
2023-04-09T12:19:21.614Z,89.49
2023-04-09T12:24:26.755Z,89.49
2023-04-09T12:29:31.083Z,89.43
2023-04-09T12:34:34.768Z,88.78
2023-04-09T12:39:38.503Z,88.39
2023-04-09T12:44:42.283Z,88.70
2023-04-09T12:49:47.187Z,89.12
2023-04-09T12:54:52.705Z,89.16
2023-04-09T12:59:56.451Z,89.28
2023-04-09T13:05:00.658Z,89.55
2023-04-09T13:10:05.024Z,89.67
2023-04-09T13:15:09.287Z,89.84
2023-04-09T13:20:13.225Z,89.75
2023-04-09T13:25:17.123Z,90.08
2023-04-09T13:30:22.926Z,90.09
2023-04-09T13:35:26.665Z,90.19
2023-04-09T13:40:30.440Z,89.92
2023-04-09T13:45:34.505Z,89.67
2023-04-09T13:50:38.372Z,89.72
2023-04-09T13:55:42.260Z,89.74
2023-04-09T14:00:45.984Z,89.64
2023-04-09T14:05:50.102Z,89.82
2023-04-09T14:10:53.818Z,89.90
2023-04-09T14:16:00.331Z,90.16
2023-04-09T14:21:04.550Z,90.03
2023-04-09T14:26:08.838Z,89.53
2023-04-09T14:31:13.514Z,89.19
2023-04-09T14:36:18.078Z,89.65
2023-04-09T14:41:21.994Z,89.34
2023-04-09T14:46:25.782Z,88.98
2023-04-09T14:51:31.065Z,89.11
2023-04-09T14:56:34.755Z,88.98
2023-04-09T15:01:38.566Z,89.50
2023-04-09T15:06:43.437Z,89.32
2023-04-09T15:11:47.882Z,89.55
2023-04-09T15:16:52.130Z,89.61
2023-04-09T15:21:56.722Z,90.22
2023-04-09T15:27:02.177Z,90.42
2023-04-09T15:32:07.796Z,90.49
2023-04-09T15:37:11.534Z,90.61
2023-04-09T15:42:20.551Z,91.06
2023-04-09T15:47:24.168Z,91.44
2023-04-09T15:52:27.983Z,91.45
2023-04-09T15:57:31.666Z,91.73
2023-04-09T16:02:37.196Z,91.89
2023-04-09T16:07:41.296Z,92.03
2023-04-09T16:12:45.031Z,92.14
2023-04-09T16:17:48.726Z,92.21
2023-04-09T16:22:52.565Z,92.48
2023-04-09T16:27:56.425Z,92.49
2023-04-09T16:33:00.309Z,92.45
2023-04-09T16:38:05.323Z,91.91
2023-04-09T16:43:09.086Z,91.78
2023-04-09T16:48:13.843Z,91.27
2023-04-09T16:53:17.808Z,90.90
2023-04-09T16:58:21.573Z,91.02
2023-04-09T17:03:26.743Z,90.68
2023-04-09T17:08:30.924Z,90.55
2023-04-09T17:13:36.562Z,90.74
2023-04-09T17:18:40.351Z,90.44
2023-04-09T17:23:44.619Z,90.44
2023-04-09T17:28:48.366Z,90.47
2023-04-09T17:33:52.351Z,90.54
2023-04-09T17:38:56.898Z,90.52
2023-04-09T17:44:00.646Z,90.57
2023-04-09T17:49:04.755Z,90.78
2023-04-09T17:54:08.496Z,90.73
2023-04-09T17:59:12.484Z,90.72
2023-04-09T18:04:16.836Z,90.76
2023-04-09T18:09:21.032Z,91.11
2023-04-09T18:14:25.262Z,91.33
2023-04-09T18:19:29.015Z,91.63
2023-04-09T18:24:34.219Z,92.06
2023-04-09T18:29:38.009Z,91.68
2023-04-09T18:34:41.816Z,91.41
2023-04-09T18:39:47.303Z,91.62
2023-04-09T18:44:51.293Z,91.71
2023-04-09T18:49:56.354Z,92.06
2023-04-09T18:55:01.870Z,92.31
2023-04-09T19:00:08.257Z,92.45
2023-04-09T19:05:13.321Z,92.33
2023-04-09T19:10:17.788Z,92.08
2023-04-09T19:15:29.318Z,92.18
2023-04-09T19:20:35.431Z,92.54
2023-04-09T19:25:39.572Z,92.93
2023-04-09T19:30:44.887Z,93.15
2023-04-09T19:35:53.064Z,92.70
2023-04-09T19:40:57.231Z,92.68
2023-04-09T19:46:06.884Z,92.79
2023-04-09T19:51:17.894Z,93.01
2023-04-09T19:56:22.162Z,93.08
2023-04-09T20:01:26.203Z,92.92
2023-04-09T20:06:31.205Z,92.63
2023-04-09T20:11:35.727Z,92.54
2023-04-09T20:16:39.420Z,93.19
2023-04-09T20:21:44.090Z,93.66
2023-04-09T20:26:49.017Z,93.48
2023-04-09T20:31:56.170Z,93.16
2023-04-09T20:37:08.729Z,93.08
2023-04-09T20:42:12.574Z,93.08
2023-04-09T20:47:17.251Z,92.99
2023-04-09T20:52:21.077Z,93.01
2023-04-09T20:57:25.348Z,92.98
2023-04-09T21:02:29.469Z,92.82
2023-04-09T21:07:33.372Z,92.82
2023-04-09T21:12:40.888Z,92.92
2023-04-09T21:17:48.342Z,92.71
2023-04-09T21:22:54.900Z,92.99
2023-04-09T21:28:03.790Z,93.31
2023-04-09T21:33:11.617Z,93.18
2023-04-09T21:38:18.444Z,92.35
2023-04-09T21:43:24.124Z,92.48
2023-04-09T21:48:30.959Z,92.19
2023-04-09T21:53:38.662Z,92.56
2023-04-09T21:58:47.396Z,92.79
2023-04-09T22:03:52.453Z,92.26
2023-04-09T22:08:58.215Z,92.61
2023-04-09T22:14:02.491Z,92.83
2023-04-09T22:19:09.062Z,92.83
2023-04-09T22:24:14.627Z,93.02
2023-04-09T22:29:18.396Z,92.84
2023-04-09T22:34:22.351Z,92.76
2023-04-09T22:39:27.050Z,93.04
2023-04-09T22:44:30.982Z,93.11
2023-04-09T22:49:34.774Z,93.09
2023-04-09T22:54:38.888Z,93.03
2023-04-09T22:59:42.645Z,92.94
2023-04-09T23:04:46.494Z,92.96
2023-04-09T23:09:50.353Z,93.09
2023-04-09T23:14:55.063Z,93.40
2023-04-09T23:19:59.946Z,93.46
2023-04-09T23:25:05.353Z,93.48
2023-04-09T23:30:09.853Z,93.85
2023-04-09T23:35:13.910Z,93.97
2023-04-09T23:40:20.290Z,93.99
2023-04-09T23:45:24.047Z,94.07
2023-04-09T23:50:29.060Z,94.15
2023-04-09T23:55:33.777Z,94.07
